sensor_id;sensor_type;location;lat;lon;timestamp;P1;durP1;ratioP1;P2;durP2;ratioP2
27539;SDS011;15906;52.046;4.724;2023-02-15T00:01:24;49.73;;;29.77;;
27539;SDS011;15906;52.046;4.724;2023-02-15T00:03:50;49.00;;;30.07;;
27539;SDS011;15906;52.046;4.724;2023-02-15T00:06:16;52.53;;;29.57;;
27539;SDS011;15906;52.046;4.724;2023-02-15T00:08:42;52.27;;;30.40;;
27539;SDS011;15906;52.046;4.724;2023-02-15T00:11:08;51.00;;;29.17;;
27539;SDS011;15906;52.046;4.724;2023-02-15T00:13:35;53.03;;;29.30;;
27539;SDS011;15906;52.046;4.724;2023-02-15T00:16:03;50.57;;;28.43;;
27539;SDS011;15906;52.046;4.724;2023-02-15T00:18:31;44.63;;;28.47;;
27539;SDS011;15906;52.046;4.724;2023-02-15T00:20:57;47.80;;;28.67;;
27539;SDS011;15906;52.046;4.724;2023-02-15T00:23:23;48.50;;;29.57;;
27539;SDS011;15906;52.046;4.724;2023-02-15T00:25:49;49.33;;;28.07;;
27539;SDS011;15906;52.046;4.724;2023-02-15T00:28:15;46.83;;;28.77;;
27539;SDS011;15906;52.046;4.724;2023-02-15T00:30:40;46.63;;;28.60;;
27539;SDS011;15906;52.046;4.724;2023-02-15T00:33:08;46.67;;;28.53;;
27539;SDS011;15906;52.046;4.724;2023-02-15T00:35:34;47.57;;;29.50;;
27539;SDS011;15906;52.046;4.724;2023-02-15T00:37:59;52.27;;;30.23;;
27539;SDS011;15906;52.046;4.724;2023-02-15T00:40:25;49.50;;;28.67;;
27539;SDS011;15906;52.046;4.724;2023-02-15T00:42:50;48.70;;;29.23;;
27539;SDS011;15906;52.046;4.724;2023-02-15T00:45:16;48.50;;;28.90;;
27539;SDS011;15906;52.046;4.724;2023-02-15T00:47:41;47.47;;;27.17;;
27539;SDS011;15906;52.046;4.724;2023-02-15T00:50:07;42.73;;;26.23;;
27539;SDS011;15906;52.046;4.724;2023-02-15T00:52:33;47.83;;;27.43;;
27539;SDS011;15906;52.046;4.724;2023-02-15T00:54:58;44.70;;;26.93;;
27539;SDS011;15906;52.046;4.724;2023-02-15T00:57:24;43.17;;;25.90;;
27539;SDS011;15906;52.046;4.724;2023-02-15T00:59:49;41.67;;;25.03;;
27539;SDS011;15906;52.046;4.724;2023-02-15T01:02:15;38.20;;;23.97;;
27539;SDS011;15906;52.046;4.724;2023-02-15T01:04:40;45.27;;;25.97;;
27539;SDS011;15906;52.046;4.724;2023-02-15T01:07:06;39.37;;;24.30;;
27539;SDS011;15906;52.046;4.724;2023-02-15T01:09:33;42.43;;;24.03;;
27539;SDS011;15906;52.046;4.724;2023-02-15T01:11:58;35.97;;;22.90;;
27539;SDS011;15906;52.046;4.724;2023-02-15T01:14:24;36.93;;;22.77;;
27539;SDS011;15906;52.046;4.724;2023-02-15T01:16:49;34.50;;;21.73;;
27539;SDS011;15906;52.046;4.724;2023-02-15T01:19:15;31.37;;;20.97;;
27539;SDS011;15906;52.046;4.724;2023-02-15T01:21:40;31.27;;;19.90;;
27539;SDS011;15906;52.046;4.724;2023-02-15T01:24:10;33.43;;;19.70;;
27539;SDS011;15906;52.046;4.724;2023-02-15T01:26:37;32.60;;;19.73;;
27539;SDS011;15906;52.046;4.724;2023-02-15T01:29:03;30.97;;;19.67;;
27539;SDS011;15906;52.046;4.724;2023-02-15T01:31:28;28.97;;;19.43;;
27539;SDS011;15906;52.046;4.724;2023-02-15T01:33:54;34.63;;;20.93;;
27539;SDS011;15906;52.046;4.724;2023-02-15T01:36:20;29.00;;;18.97;;
27539;SDS011;15906;52.046;4.724;2023-02-15T01:38:45;36.77;;;20.70;;
27539;SDS011;15906;52.046;4.724;2023-02-15T01:41:11;32.30;;;20.33;;
27539;SDS011;15906;52.046;4.724;2023-02-15T01:43:49;34.27;;;19.37;;
27539;SDS011;15906;52.046;4.724;2023-02-15T01:46:17;31.43;;;19.23;;
27539;SDS011;15906;52.046;4.724;2023-02-15T01:48:46;33.67;;;21.33;;
27539;SDS011;15906;52.046;4.724;2023-02-15T01:51:14;32.03;;;21.00;;
27539;SDS011;15906;52.046;4.724;2023-02-15T01:53:46;35.53;;;21.77;;
27539;SDS011;15906;52.046;4.724;2023-02-15T01:56:22;36.17;;;22.47;;
27539;SDS011;15906;52.046;4.724;2023-02-15T01:58:51;32.93;;;20.70;;
27539;SDS011;15906;52.046;4.724;2023-02-15T02:01:20;36.50;;;20.43;;
27539;SDS011;15906;52.046;4.724;2023-02-15T02:03:49;40.53;;;25.17;;
27539;SDS011;15906;52.046;4.724;2023-02-15T02:06:18;37.80;;;22.63;;
27539;SDS011;15906;52.046;4.724;2023-02-15T02:08:45;34.83;;;21.97;;
27539;SDS011;15906;52.046;4.724;2023-02-15T02:11:12;45.60;;;24.23;;
27539;SDS011;15906;52.046;4.724;2023-02-15T02:13:39;37.93;;;22.63;;
27539;SDS011;15906;52.046;4.724;2023-02-15T02:24:36;51.87;;;27.67;;
27539;SDS011;15906;52.046;4.724;2023-02-15T02:32:51;53.43;;;30.57;;
27539;SDS011;15906;52.046;4.724;2023-02-15T02:37:53;61.03;;;34.80;;
27539;SDS011;15906;52.046;4.724;2023-02-15T02:40:36;62.00;;;34.07;;
27539;SDS011;15906;52.046;4.724;2023-02-15T02:43:29;58.73;;;32.23;;
27539;SDS011;15906;52.046;4.724;2023-02-15T02:48:45;66.07;;;35.93;;
27539;SDS011;15906;52.046;4.724;2023-02-15T02:51:13;64.00;;;35.17;;
27539;SDS011;15906;52.046;4.724;2023-02-15T02:53:45;69.53;;;36.17;;
27539;SDS011;15906;52.046;4.724;2023-02-15T02:56:21;60.10;;;33.67;;
27539;SDS011;15906;52.046;4.724;2023-02-15T03:01:40;64.83;;;35.57;;
27539;SDS011;15906;52.046;4.724;2023-02-15T03:04:33;67.57;;;35.53;;
27539;SDS011;15906;52.046;4.724;2023-02-15T03:07:06;58.77;;;33.37;;
27539;SDS011;15906;52.046;4.724;2023-02-15T03:12:07;56.27;;;31.03;;
27539;SDS011;15906;52.046;4.724;2023-02-15T03:14:36;49.50;;;29.10;;
27539;SDS011;15906;52.046;4.724;2023-02-15T03:17:05;54.30;;;31.07;;
27539;SDS011;15906;52.046;4.724;2023-02-15T03:19:33;51.60;;;29.50;;
27539;SDS011;15906;52.046;4.724;2023-02-15T03:25:11;46.80;;;27.80;;
27539;SDS011;15906;52.046;4.724;2023-02-15T03:27:44;45.80;;;26.90;;
27539;SDS011;15906;52.046;4.724;2023-02-15T03:30:13;47.57;;;27.40;;
27539;SDS011;15906;52.046;4.724;2023-02-15T03:32:43;47.00;;;28.30;;
27539;SDS011;15906;52.046;4.724;2023-02-15T03:35:09;47.80;;;28.77;;
27539;SDS011;15906;52.046;4.724;2023-02-15T03:37:37;51.43;;;28.20;;
27539;SDS011;15906;52.046;4.724;2023-02-15T03:40:28;47.20;;;28.50;;
27539;SDS011;15906;52.046;4.724;2023-02-15T03:46:30;46.63;;;26.57;;
27539;SDS011;15906;52.046;4.724;2023-02-15T03:49:02;51.37;;;26.93;;
27539;SDS011;15906;52.046;4.724;2023-02-15T03:51:35;45.33;;;26.13;;
27539;SDS011;15906;52.046;4.724;2023-02-15T03:54:05;45.53;;;26.83;;
27539;SDS011;15906;52.046;4.724;2023-02-15T03:56:34;52.23;;;26.70;;
27539;SDS011;15906;52.046;4.724;2023-02-15T03:59:06;49.40;;;27.17;;
27539;SDS011;15906;52.046;4.724;2023-02-15T04:02:07;46.27;;;26.40;;
27539;SDS011;15906;52.046;4.724;2023-02-15T04:04:45;51.70;;;29.60;;
27539;SDS011;15906;52.046;4.724;2023-02-15T04:07:12;50.00;;;29.67;;
27539;SDS011;15906;52.046;4.724;2023-02-15T04:09:38;52.87;;;29.97;;
27539;SDS011;15906;52.046;4.724;2023-02-15T04:12:22;57.77;;;31.73;;
27539;SDS011;15906;52.046;4.724;2023-02-15T04:14:48;55.27;;;28.50;;
27539;SDS011;15906;52.046;4.724;2023-02-15T04:17:32;54.13;;;30.43;;
27539;SDS011;15906;52.046;4.724;2023-02-15T04:19:57;60.33;;;30.97;;
27539;SDS011;15906;52.046;4.724;2023-02-15T04:22:41;56.43;;;31.00;;
27539;SDS011;15906;52.046;4.724;2023-02-15T04:25:25;57.73;;;30.63;;
27539;SDS011;15906;52.046;4.724;2023-02-15T04:27:52;54.93;;;30.20;;
27539;SDS011;15906;52.046;4.724;2023-02-15T04:30:19;59.97;;;32.00;;
27539;SDS011;15906;52.046;4.724;2023-02-15T04:32:46;53.27;;;30.27;;
27539;SDS011;15906;52.046;4.724;2023-02-15T04:35:12;55.77;;;30.13;;
27539;SDS011;15906;52.046;4.724;2023-02-15T04:37:39;53.57;;;29.47;;
27539;SDS011;15906;52.046;4.724;2023-02-15T04:40:07;60.50;;;31.27;;
27539;SDS011;15906;52.046;4.724;2023-02-15T04:42:34;59.40;;;31.47;;
27539;SDS011;15906;52.046;4.724;2023-02-15T04:45:00;51.97;;;29.83;;
27539;SDS011;15906;52.046;4.724;2023-02-15T04:47:25;57.73;;;32.60;;
27539;SDS011;15906;52.046;4.724;2023-02-15T04:49:51;55.63;;;30.50;;
27539;SDS011;15906;52.046;4.724;2023-02-15T04:52:17;61.23;;;31.77;;
27539;SDS011;15906;52.046;4.724;2023-02-15T04:54:42;60.83;;;32.53;;
27539;SDS011;15906;52.046;4.724;2023-02-15T04:57:08;65.40;;;33.70;;
27539;SDS011;15906;52.046;4.724;2023-02-15T04:59:34;59.53;;;33.77;;
27539;SDS011;15906;52.046;4.724;2023-02-15T05:02:00;62.77;;;33.93;;
27539;SDS011;15906;52.046;4.724;2023-02-15T05:04:25;63.73;;;33.63;;
27539;SDS011;15906;52.046;4.724;2023-02-15T05:06:51;67.13;;;35.40;;
27539;SDS011;15906;52.046;4.724;2023-02-15T05:09:16;62.80;;;34.03;;
27539;SDS011;15906;52.046;4.724;2023-02-15T05:11:42;60.53;;;33.37;;
27539;SDS011;15906;52.046;4.724;2023-02-15T05:14:08;63.33;;;33.20;;
27539;SDS011;15906;52.046;4.724;2023-02-15T05:16:33;60.00;;;32.37;;
27539;SDS011;15906;52.046;4.724;2023-02-15T05:18:59;64.93;;;33.60;;
27539;SDS011;15906;52.046;4.724;2023-02-15T05:21:25;59.30;;;33.20;;
27539;SDS011;15906;52.046;4.724;2023-02-15T05:23:50;62.17;;;34.90;;
27539;SDS011;15906;52.046;4.724;2023-02-15T05:26:17;60.33;;;33.60;;
27539;SDS011;15906;52.046;4.724;2023-02-15T05:29:03;60.67;;;32.80;;
27539;SDS011;15906;52.046;4.724;2023-02-15T05:31:30;56.10;;;32.93;;
27539;SDS011;15906;52.046;4.724;2023-02-15T05:33:56;64.47;;;32.90;;
27539;SDS011;15906;52.046;4.724;2023-02-15T05:36:22;54.83;;;31.63;;
27539;SDS011;15906;52.046;4.724;2023-02-15T05:38:48;61.80;;;32.33;;
27539;SDS011;15906;52.046;4.724;2023-02-15T05:41:13;57.70;;;31.17;;
27539;SDS011;15906;52.046;4.724;2023-02-15T05:43:39;56.80;;;32.27;;
27539;SDS011;15906;52.046;4.724;2023-02-15T05:46:05;53.07;;;31.07;;
27539;SDS011;15906;52.046;4.724;2023-02-15T05:48:31;54.73;;;31.50;;
27539;SDS011;15906;52.046;4.724;2023-02-15T05:50:58;57.60;;;31.57;;
27539;SDS011;15906;52.046;4.724;2023-02-15T05:53:28;53.93;;;30.43;;
27539;SDS011;15906;52.046;4.724;2023-02-15T05:55:56;58.77;;;31.40;;
27539;SDS011;15906;52.046;4.724;2023-02-15T05:58:27;63.43;;;31.87;;
27539;SDS011;15906;52.046;4.724;2023-02-15T06:00:55;52.10;;;29.30;;
27539;SDS011;15906;52.046;4.724;2023-02-15T06:03:20;58.07;;;30.33;;
27539;SDS011;15906;52.046;4.724;2023-02-15T06:05:47;54.67;;;29.67;;
27539;SDS011;15906;52.046;4.724;2023-02-15T06:08:12;54.50;;;30.43;;
27539;SDS011;15906;52.046;4.724;2023-02-15T06:10:38;61.83;;;30.97;;
27539;SDS011;15906;52.046;4.724;2023-02-15T06:13:05;58.67;;;31.77;;
27539;SDS011;15906;52.046;4.724;2023-02-15T06:15:31;51.97;;;30.17;;
27539;SDS011;15906;52.046;4.724;2023-02-15T06:17:56;51.60;;;29.67;;
27539;SDS011;15906;52.046;4.724;2023-02-15T06:20:22;59.93;;;31.13;;
27539;SDS011;15906;52.046;4.724;2023-02-15T06:22:47;54.57;;;31.00;;
27539;SDS011;15906;52.046;4.724;2023-02-15T06:25:13;56.50;;;31.77;;
27539;SDS011;15906;52.046;4.724;2023-02-15T06:27:40;59.53;;;29.50;;
27539;SDS011;15906;52.046;4.724;2023-02-15T06:30:08;64.03;;;30.83;;
27539;SDS011;15906;52.046;4.724;2023-02-15T06:32:35;66.33;;;30.07;;
27539;SDS011;15906;52.046;4.724;2023-02-15T06:35:01;72.67;;;30.47;;
27539;SDS011;15906;52.046;4.724;2023-02-15T06:37:26;57.10;;;29.33;;
27539;SDS011;15906;52.046;4.724;2023-02-15T06:39:52;54.43;;;29.50;;
27539;SDS011;15906;52.046;4.724;2023-02-15T06:42:18;50.33;;;28.37;;
27539;SDS011;15906;52.046;4.724;2023-02-15T06:44:44;61.70;;;31.80;;
27539;SDS011;15906;52.046;4.724;2023-02-15T06:47:10;51.37;;;29.73;;
27539;SDS011;15906;52.046;4.724;2023-02-15T06:49:36;53.20;;;30.10;;
27539;SDS011;15906;52.046;4.724;2023-02-15T06:52:01;52.40;;;29.73;;
27539;SDS011;15906;52.046;4.724;2023-02-15T06:54:28;56.53;;;30.40;;
27539;SDS011;15906;52.046;4.724;2023-02-15T06:56:53;56.67;;;30.80;;
27539;SDS011;15906;52.046;4.724;2023-02-15T06:59:19;52.93;;;30.23;;
27539;SDS011;15906;52.046;4.724;2023-02-15T07:01:44;65.30;;;32.40;;
27539;SDS011;15906;52.046;4.724;2023-02-15T07:04:10;55.07;;;31.47;;
27539;SDS011;15906;52.046;4.724;2023-02-15T07:06:36;62.07;;;32.17;;
27539;SDS011;15906;52.046;4.724;2023-02-15T07:09:01;56.53;;;32.00;;
27539;SDS011;15906;52.046;4.724;2023-02-15T07:11:28;57.90;;;31.90;;
27539;SDS011;15906;52.046;4.724;2023-02-15T07:14:12;63.43;;;32.63;;
27539;SDS011;15906;52.046;4.724;2023-02-15T07:16:38;57.77;;;32.07;;
27539;SDS011;15906;52.046;4.724;2023-02-15T07:19:03;62.73;;;32.53;;
27539;SDS011;15906;52.046;4.724;2023-02-15T07:21:29;62.77;;;32.63;;
27539;SDS011;15906;52.046;4.724;2023-02-15T07:23:58;66.13;;;34.57;;
27539;SDS011;15906;52.046;4.724;2023-02-15T07:26:23;67.00;;;33.67;;
27539;SDS011;15906;52.046;4.724;2023-02-15T07:28:49;62.90;;;33.57;;
27539;SDS011;15906;52.046;4.724;2023-02-15T07:31:15;59.30;;;32.67;;
27539;SDS011;15906;52.046;4.724;2023-02-15T07:33:40;60.10;;;33.87;;
27539;SDS011;15906;52.046;4.724;2023-02-15T07:36:06;64.20;;;32.40;;
27539;SDS011;15906;52.046;4.724;2023-02-15T07:38:35;60.03;;;32.83;;
27539;SDS011;15906;52.046;4.724;2023-02-15T07:41:02;60.43;;;33.03;;
27539;SDS011;15906;52.046;4.724;2023-02-15T07:43:29;65.33;;;34.10;;
27539;SDS011;15906;52.046;4.724;2023-02-15T07:46:00;68.90;;;34.73;;
27539;SDS011;15906;52.046;4.724;2023-02-15T07:48:45;61.87;;;33.00;;
27539;SDS011;15906;52.046;4.724;2023-02-15T07:51:11;65.60;;;34.80;;
27539;SDS011;15906;52.046;4.724;2023-02-15T07:53:38;64.37;;;34.93;;
27539;SDS011;15906;52.046;4.724;2023-02-15T07:56:05;69.47;;;36.23;;
27539;SDS011;15906;52.046;4.724;2023-02-15T07:58:33;63.23;;;35.43;;
27539;SDS011;15906;52.046;4.724;2023-02-15T08:01:24;64.23;;;36.40;;
27539;SDS011;15906;52.046;4.724;2023-02-15T08:03:56;73.23;;;37.50;;
27539;SDS011;15906;52.046;4.724;2023-02-15T08:06:23;73.70;;;38.67;;
27539;SDS011;15906;52.046;4.724;2023-02-15T08:08:50;78.80;;;41.00;;
27539;SDS011;15906;52.046;4.724;2023-02-15T08:11:17;83.90;;;40.00;;
27539;SDS011;15906;52.046;4.724;2023-02-15T08:13:54;79.70;;;41.53;;
27539;SDS011;15906;52.046;4.724;2023-02-15T08:16:28;76.73;;;41.90;;
27539;SDS011;15906;52.046;4.724;2023-02-15T08:18:54;80.90;;;43.03;;
27539;SDS011;15906;52.046;4.724;2023-02-15T08:21:21;85.97;;;44.20;;
27539;SDS011;15906;52.046;4.724;2023-02-15T08:23:47;87.57;;;44.10;;
27539;SDS011;15906;52.046;4.724;2023-02-15T08:26:13;86.27;;;45.40;;
27539;SDS011;15906;52.046;4.724;2023-02-15T08:28:40;87.50;;;45.80;;
27539;SDS011;15906;52.046;4.724;2023-02-15T08:31:09;87.33;;;45.33;;
27539;SDS011;15906;52.046;4.724;2023-02-15T08:33:37;88.90;;;45.20;;
27539;SDS011;15906;52.046;4.724;2023-02-15T08:36:04;90.63;;;47.80;;
27539;SDS011;15906;52.046;4.724;2023-02-15T08:38:30;89.03;;;47.80;;
27539;SDS011;15906;52.046;4.724;2023-02-15T08:40:56;98.27;;;49.60;;
27539;SDS011;15906;52.046;4.724;2023-02-15T08:43:22;89.80;;;47.33;;
27539;SDS011;15906;52.046;4.724;2023-02-15T08:45:48;87.17;;;46.90;;
27539;SDS011;15906;52.046;4.724;2023-02-15T08:48:13;85.03;;;47.03;;
27539;SDS011;15906;52.046;4.724;2023-02-15T08:50:39;91.27;;;48.40;;
27539;SDS011;15906;52.046;4.724;2023-02-15T08:53:04;88.60;;;45.90;;
27539;SDS011;15906;52.046;4.724;2023-02-15T08:55:30;85.97;;;46.27;;
27539;SDS011;15906;52.046;4.724;2023-02-15T08:57:55;88.70;;;46.50;;
27539;SDS011;15906;52.046;4.724;2023-02-15T09:00:22;91.30;;;49.63;;
27539;SDS011;15906;52.046;4.724;2023-02-15T09:02:48;93.97;;;46.97;;
27539;SDS011;15906;52.046;4.724;2023-02-15T09:05:13;90.10;;;48.27;;
27539;SDS011;15906;52.046;4.724;2023-02-15T09:07:39;85.87;;;46.37;;
27539;SDS011;15906;52.046;4.724;2023-02-15T09:10:05;84.70;;;47.27;;
27539;SDS011;15906;52.046;4.724;2023-02-15T09:12:31;84.57;;;46.40;;
27539;SDS011;15906;52.046;4.724;2023-02-15T09:14:57;82.87;;;46.50;;
27539;SDS011;15906;52.046;4.724;2023-02-15T09:17:23;84.33;;;46.17;;
27539;SDS011;15906;52.046;4.724;2023-02-15T09:19:48;83.47;;;46.57;;
27539;SDS011;15906;52.046;4.724;2023-02-15T09:22:14;82.03;;;46.90;;
27539;SDS011;15906;52.046;4.724;2023-02-15T09:24:40;88.83;;;47.77;;
27539;SDS011;15906;52.046;4.724;2023-02-15T09:27:05;89.43;;;47.90;;
27539;SDS011;15906;52.046;4.724;2023-02-15T09:29:31;86.60;;;46.63;;
27539;SDS011;15906;52.046;4.724;2023-02-15T09:31:56;79.20;;;46.10;;
27539;SDS011;15906;52.046;4.724;2023-02-15T09:34:22;77.63;;;43.97;;
27539;SDS011;15906;52.046;4.724;2023-02-15T09:36:48;70.13;;;41.87;;
27539;SDS011;15906;52.046;4.724;2023-02-15T09:39:15;71.40;;;42.03;;
27539;SDS011;15906;52.046;4.724;2023-02-15T09:55:06;87.50;;;49.38;;
27539;SDS011;15906;52.046;4.724;2023-02-15T10:00:54;69.75;;;39.03;;
27539;SDS011;15906;52.046;4.724;2023-02-15T10:08:50;90.63;;;49.40;;
27539;SDS011;15906;52.046;4.724;2023-02-15T10:31:28;66.18;;;39.38;;
27539;SDS011;15906;52.046;4.724;2023-02-15T10:34:18;64.43;;;38.63;;
27539;SDS011;15906;52.046;4.724;2023-02-15T10:42:57;63.38;;;39.05;;
27539;SDS011;15906;52.046;4.724;2023-02-15T10:51:20;67.68;;;40.58;;
27539;SDS011;15906;52.046;4.724;2023-02-15T10:57:16;66.65;;;39.97;;
27539;SDS011;15906;52.046;4.724;2023-02-15T10:59:50;62.03;;;39.53;;
27539;SDS011;15906;52.046;4.724;2023-02-15T11:08:14;62.33;;;39.67;;
27539;SDS011;15906;52.046;4.724;2023-02-15T11:13:19;68.85;;;41.75;;
27539;SDS011;15906;52.046;4.724;2023-02-15T11:18:31;67.50;;;40.05;;
27539;SDS011;15906;52.046;4.724;2023-02-15T11:24:10;64.38;;;38.80;;
27539;SDS011;15906;52.046;4.724;2023-02-15T11:26:59;67.40;;;41.50;;
27539;SDS011;15906;52.046;4.724;2023-02-15T11:32:02;72.20;;;43.50;;
27539;SDS011;15906;52.046;4.724;2023-02-15T11:37:08;66.97;;;42.55;;
27539;SDS011;15906;52.046;4.724;2023-02-15T11:39:37;72.47;;;43.40;;
27539;SDS011;15906;52.046;4.724;2023-02-15T11:42:13;67.20;;;43.10;;
27539;SDS011;15906;52.046;4.724;2023-02-15T11:44:43;68.78;;;43.97;;
27539;SDS011;15906;52.046;4.724;2023-02-15T11:47:28;67.25;;;42.78;;
27539;SDS011;15906;52.046;4.724;2023-02-15T11:49:54;66.60;;;43.05;;
27539;SDS011;15906;52.046;4.724;2023-02-15T11:52:19;66.63;;;43.67;;
27539;SDS011;15906;52.046;4.724;2023-02-15T11:54:46;66.00;;;43.55;;
27539;SDS011;15906;52.046;4.724;2023-02-15T11:57:22;70.30;;;42.42;;
27539;SDS011;15906;52.046;4.724;2023-02-15T12:00:02;72.25;;;41.15;;
27539;SDS011;15906;52.046;4.724;2023-02-15T12:02:37;67.63;;;40.28;;
27539;SDS011;15906;52.046;4.724;2023-02-15T12:05:07;61.20;;;39.30;;
27539;SDS011;15906;52.046;4.724;2023-02-15T12:07:40;64.10;;;40.50;;
27539;SDS011;15906;52.046;4.724;2023-02-15T12:12:38;66.18;;;41.20;;
27539;SDS011;15906;52.046;4.724;2023-02-15T12:15:08;66.50;;;40.78;;
27539;SDS011;15906;52.046;4.724;2023-02-15T12:17:38;66.18;;;40.63;;
27539;SDS011;15906;52.046;4.724;2023-02-15T12:22:49;60.95;;;39.95;;
27539;SDS011;15906;52.046;4.724;2023-02-15T12:27:55;61.05;;;39.22;;
27539;SDS011;15906;52.046;4.724;2023-02-15T12:30:36;61.67;;;38.92;;
27539;SDS011;15906;52.046;4.724;2023-02-15T12:33:13;60.13;;;35.72;;
27539;SDS011;15906;52.046;4.724;2023-02-15T12:35:54;56.42;;;35.83;;
27539;SDS011;15906;52.046;4.724;2023-02-15T12:38:42;59.38;;;35.83;;
27539;SDS011;15906;52.046;4.724;2023-02-15T12:41:21;59.53;;;35.88;;
27539;SDS011;15906;52.046;4.724;2023-02-15T12:44:02;61.22;;;36.95;;
27539;SDS011;15906;52.046;4.724;2023-02-15T12:46:30;60.05;;;36.20;;
27539;SDS011;15906;52.046;4.724;2023-02-15T12:49:04;58.33;;;36.88;;
27539;SDS011;15906;52.046;4.724;2023-02-15T12:51:42;59.05;;;35.35;;
27539;SDS011;15906;52.046;4.724;2023-02-15T12:54:15;54.55;;;36.45;;
27539;SDS011;15906;52.046;4.724;2023-02-15T12:59:49;63.25;;;37.60;;
27539;SDS011;15906;52.046;4.724;2023-02-15T13:07:38;60.22;;;36.90;;
27539;SDS011;15906;52.046;4.724;2023-02-15T13:10:18;55.35;;;36.28;;
27539;SDS011;15906;52.046;4.724;2023-02-15T13:13:11;62.03;;;33.97;;
27539;SDS011;15906;52.046;4.724;2023-02-15T13:15:47;57.92;;;35.83;;
27539;SDS011;15906;52.046;4.724;2023-02-15T13:18:17;63.03;;;35.50;;
27539;SDS011;15906;52.046;4.724;2023-02-15T13:21:06;59.67;;;35.30;;
27539;SDS011;15906;52.046;4.724;2023-02-15T13:23:38;59.13;;;36.35;;
27539;SDS011;15906;52.046;4.724;2023-02-15T13:26:09;59.42;;;35.33;;
27539;SDS011;15906;52.046;4.724;2023-02-15T13:28:50;57.67;;;35.42;;
27539;SDS011;15906;52.046;4.724;2023-02-15T13:31:23;57.38;;;35.72;;
27539;SDS011;15906;52.046;4.724;2023-02-15T13:33:53;56.80;;;34.35;;
27539;SDS011;15906;52.046;4.724;2023-02-15T13:45:16;54.13;;;32.13;;
27539;SDS011;15906;52.046;4.724;2023-02-15T13:48:33;52.50;;;31.02;;
27539;SDS011;15906;52.046;4.724;2023-02-15T13:51:17;50.20;;;30.85;;
27539;SDS011;15906;52.046;4.724;2023-02-15T13:54:08;49.60;;;30.58;;
27539;SDS011;15906;52.046;4.724;2023-02-15T13:56:58;53.78;;;32.75;;
27539;SDS011;15906;52.046;4.724;2023-02-15T14:10:53;59.53;;;33.65;;
27539;SDS011;15906;52.046;4.724;2023-02-15T14:16:36;60.72;;;33.08;;
27539;SDS011;15906;52.046;4.724;2023-02-15T14:21:53;58.63;;;33.47;;
27539;SDS011;15906;52.046;4.724;2023-02-15T14:27:42;53.70;;;31.55;;
27539;SDS011;15906;52.046;4.724;2023-02-15T14:30:46;57.60;;;31.42;;
27539;SDS011;15906;52.046;4.724;2023-02-15T14:35:40;57.83;;;34.03;;
27539;SDS011;15906;52.046;4.724;2023-02-15T14:38:15;58.97;;;33.65;;
27539;SDS011;15906;52.046;4.724;2023-02-15T14:49:13;56.28;;;34.00;;
27539;SDS011;15906;52.046;4.724;2023-02-15T14:56:42;66.32;;;36.92;;
27539;SDS011;15906;52.046;4.724;2023-02-15T14:59:19;59.45;;;36.58;;
27539;SDS011;15906;52.046;4.724;2023-02-15T15:01:54;64.90;;;36.50;;
27539;SDS011;15906;52.046;4.724;2023-02-15T15:04:29;60.05;;;37.30;;
27539;SDS011;15906;52.046;4.724;2023-02-15T15:07:08;60.17;;;37.03;;
27539;SDS011;15906;52.046;4.724;2023-02-15T15:09:42;59.85;;;36.67;;
27539;SDS011;15906;52.046;4.724;2023-02-15T15:14:48;62.05;;;37.15;;
27539;SDS011;15906;52.046;4.724;2023-02-15T15:20:10;61.53;;;38.13;;
27539;SDS011;15906;52.046;4.724;2023-02-15T15:22:38;67.68;;;38.92;;
27539;SDS011;15906;52.046;4.724;2023-02-15T15:25:11;66.07;;;37.60;;
27539;SDS011;15906;52.046;4.724;2023-02-15T15:27:56;66.60;;;37.17;;
27539;SDS011;15906;52.046;4.724;2023-02-15T15:49:28;68.20;;;39.78;;
27539;SDS011;15906;52.046;4.724;2023-02-15T15:51:56;65.80;;;38.35;;
27539;SDS011;15906;52.046;4.724;2023-02-15T15:54:26;63.22;;;38.85;;
27539;SDS011;15906;52.046;4.724;2023-02-15T15:56:56;71.30;;;40.33;;
27539;SDS011;15906;52.046;4.724;2023-02-15T15:59:26;64.65;;;39.20;;
27539;SDS011;15906;52.046;4.724;2023-02-15T16:01:55;69.22;;;40.15;;
27539;SDS011;15906;52.046;4.724;2023-02-15T16:04:28;67.00;;;39.03;;
27539;SDS011;15906;52.046;4.724;2023-02-15T16:06:55;73.63;;;41.13;;
27539;SDS011;15906;52.046;4.724;2023-02-15T16:09:40;68.35;;;40.17;;
27539;SDS011;15906;52.046;4.724;2023-02-15T16:12:11;71.32;;;40.45;;
27539;SDS011;15906;52.046;4.724;2023-02-15T16:14:40;71.93;;;41.35;;
27539;SDS011;15906;52.046;4.724;2023-02-15T16:17:12;74.78;;;40.97;;
27539;SDS011;15906;52.046;4.724;2023-02-15T16:19:42;70.22;;;40.35;;
27539;SDS011;15906;52.046;4.724;2023-02-15T16:22:18;70.90;;;41.03;;
27539;SDS011;15906;52.046;4.724;2023-02-15T16:27:46;69.85;;;40.90;;
27539;SDS011;15906;52.046;4.724;2023-02-15T16:32:53;74.40;;;42.67;;
27539;SDS011;15906;52.046;4.724;2023-02-15T16:35:21;76.78;;;42.40;;
27539;SDS011;15906;52.046;4.724;2023-02-15T16:37:47;74.60;;;42.30;;
27539;SDS011;15906;52.046;4.724;2023-02-15T16:40:26;74.80;;;41.78;;
27539;SDS011;15906;52.046;4.724;2023-02-15T16:43:01;77.40;;;42.70;;
27539;SDS011;15906;52.046;4.724;2023-02-15T16:45:30;74.95;;;42.47;;
27539;SDS011;15906;52.046;4.724;2023-02-15T16:47:57;71.75;;;41.85;;
27539;SDS011;15906;52.046;4.724;2023-02-15T16:50:34;74.15;;;41.20;;
27539;SDS011;15906;52.046;4.724;2023-02-15T16:53:03;70.07;;;42.47;;
27539;SDS011;15906;52.046;4.724;2023-02-15T16:55:35;70.78;;;41.75;;
27539;SDS011;15906;52.046;4.724;2023-02-15T16:58:06;70.68;;;41.53;;
27539;SDS011;15906;52.046;4.724;2023-02-15T17:00:37;77.53;;;42.55;;
27539;SDS011;15906;52.046;4.724;2023-02-15T17:03:12;69.30;;;42.58;;
27539;SDS011;15906;52.046;4.724;2023-02-15T17:05:49;73.43;;;41.58;;
27539;SDS011;15906;52.046;4.724;2023-02-15T17:08:17;70.05;;;41.20;;
27539;SDS011;15906;52.046;4.724;2023-02-15T17:11:04;68.85;;;40.00;;
27539;SDS011;15906;52.046;4.724;2023-02-15T17:13:38;67.57;;;40.88;;
27539;SDS011;15906;52.046;4.724;2023-02-15T17:18:52;76.78;;;40.85;;
27539;SDS011;15906;52.046;4.724;2023-02-15T17:21:20;70.35;;;41.50;;
27539;SDS011;15906;52.046;4.724;2023-02-15T17:23:50;77.05;;;42.92;;
27539;SDS011;15906;52.046;4.724;2023-02-15T17:26:21;73.53;;;40.20;;
27539;SDS011;15906;52.046;4.724;2023-02-15T17:28:51;71.55;;;40.53;;
27539;SDS011;15906;52.046;4.724;2023-02-15T17:31:21;69.82;;;40.95;;
27539;SDS011;15906;52.046;4.724;2023-02-15T17:33:48;81.80;;;41.33;;
27539;SDS011;15906;52.046;4.724;2023-02-15T17:36:19;72.68;;;41.50;;
27539;SDS011;15906;52.046;4.724;2023-02-15T17:41:26;74.80;;;43.35;;
27539;SDS011;15906;52.046;4.724;2023-02-15T17:43:56;71.22;;;39.85;;
27539;SDS011;15906;52.046;4.724;2023-02-15T17:46:22;68.82;;;41.53;;
27539;SDS011;15906;52.046;4.724;2023-02-15T17:48:50;72.10;;;40.30;;
27539;SDS011;15906;52.046;4.724;2023-02-15T17:51:18;69.00;;;40.50;;
27539;SDS011;15906;52.046;4.724;2023-02-15T17:53:44;71.13;;;41.80;;
27539;SDS011;15906;52.046;4.724;2023-02-15T17:56:31;71.97;;;41.72;;
27539;SDS011;15906;52.046;4.724;2023-02-15T17:58:57;68.88;;;40.22;;
27539;SDS011;15906;52.046;4.724;2023-02-15T18:01:22;73.55;;;42.17;;
27539;SDS011;15906;52.046;4.724;2023-02-15T18:04:07;68.93;;;41.72;;